sensor_id;sensor_type;location;lat;lon;timestamp;P1;durP1;ratioP1;P2;durP2;ratioP2
23260;SDS011;11799;47.740;-3.390;2023-06-14T00:01:45;4.15;;;3.75;;
23260;SDS011;11799;47.740;-3.390;2023-06-14T00:04:11;3.92;;;3.53;;
23260;SDS011;11799;47.740;-3.390;2023-06-14T00:06:38;6.82;;;3.83;;
23260;SDS011;11799;47.740;-3.390;2023-06-14T00:09:04;5.50;;;4.45;;
23260;SDS011;11799;47.740;-3.390;2023-06-14T00:11:33;4.93;;;4.20;;
23260;SDS011;11799;47.740;-3.390;2023-06-14T00:13:58;5.88;;;3.75;;
23260;SDS011;11799;47.740;-3.390;2023-06-14T00:16:24;5.78;;;4.13;;
23260;SDS011;11799;47.740;-3.390;2023-06-14T00:18:49;7.60;;;5.07;;
23260;SDS011;11799;47.740;-3.390;2023-06-14T00:21:17;7.22;;;4.97;;
23260;SDS011;11799;47.740;-3.390;2023-06-14T00:23:43;5.95;;;5.00;;
23260;SDS011;11799;47.740;-3.390;2023-06-14T00:26:08;6.70;;;4.85;;
23260;SDS011;11799;47.740;-3.390;2023-06-14T00:28:34;5.22;;;4.45;;
23260;SDS011;11799;47.740;-3.390;2023-06-14T00:31:00;6.07;;;5.32;;
23260;SDS011;11799;47.740;-3.390;2023-06-14T00:33:27;6.18;;;5.00;;
23260;SDS011;11799;47.740;-3.390;2023-06-14T00:35:52;6.38;;;5.28;;
23260;SDS011;11799;47.740;-3.390;2023-06-14T00:38:19;7.85;;;5.40;;
23260;SDS011;11799;47.740;-3.390;2023-06-14T00:40:46;7.45;;;4.93;;
23260;SDS011;11799;47.740;-3.390;2023-06-14T00:43:12;7.10;;;5.25;;
23260;SDS011;11799;47.740;-3.390;2023-06-14T00:45:38;8.35;;;5.43;;
23260;SDS011;11799;47.740;-3.390;2023-06-14T00:48:04;7.53;;;5.88;;
23260;SDS011;11799;47.740;-3.390;2023-06-14T00:50:32;7.03;;;5.20;;
23260;SDS011;11799;47.740;-3.390;2023-06-14T00:52:59;9.35;;;6.22;;
23260;SDS011;11799;47.740;-3.390;2023-06-14T00:55:26;7.50;;;6.47;;
23260;SDS011;11799;47.740;-3.390;2023-06-14T00:57:54;7.05;;;6.00;;
23260;SDS011;11799;47.740;-3.390;2023-06-14T01:00:21;10.75;;;6.28;;
23260;SDS011;11799;47.740;-3.390;2023-06-14T01:02:46;7.03;;;6.20;;
23260;SDS011;11799;47.740;-3.390;2023-06-14T01:05:12;7.32;;;5.82;;
23260;SDS011;11799;47.740;-3.390;2023-06-14T01:13:16;8.38;;;6.75;;
23260;SDS011;11799;47.740;-3.390;2023-06-14T01:15:43;9.35;;;7.72;;
23260;SDS011;11799;47.740;-3.390;2023-06-14T01:18:09;11.70;;;7.82;;
23260;SDS011;11799;47.740;-3.390;2023-06-14T01:20:43;8.63;;;6.57;;
23260;SDS011;11799;47.740;-3.390;2023-06-14T01:23:15;8.30;;;6.80;;
23260;SDS011;11799;47.740;-3.390;2023-06-14T01:25:45;9.70;;;6.90;;
23260;SDS011;11799;47.740;-3.390;2023-06-14T01:28:12;8.80;;;7.68;;
23260;SDS011;11799;47.740;-3.390;2023-06-14T01:30:40;8.75;;;7.18;;
23260;SDS011;11799;47.740;-3.390;2023-06-14T01:33:21;10.98;;;8.23;;
23260;SDS011;11799;47.740;-3.390;2023-06-14T01:35:50;11.88;;;8.30;;
23260;SDS011;11799;47.740;-3.390;2023-06-14T01:38:17;9.80;;;7.07;;
23260;SDS011;11799;47.740;-3.390;2023-06-14T01:40:44;10.82;;;8.52;;
23260;SDS011;11799;47.740;-3.390;2023-06-14T01:43:10;12.55;;;8.88;;
23260;SDS011;11799;47.740;-3.390;2023-06-14T01:45:38;12.18;;;9.50;;
23260;SDS011;11799;47.740;-3.390;2023-06-14T01:48:05;11.85;;;8.88;;
23260;SDS011;11799;47.740;-3.390;2023-06-14T01:50:31;12.13;;;9.25;;
23260;SDS011;11799;47.740;-3.390;2023-06-14T01:52:57;11.60;;;9.52;;
23260;SDS011;11799;47.740;-3.390;2023-06-14T01:55:23;13.27;;;9.70;;
23260;SDS011;11799;47.740;-3.390;2023-06-14T01:57:50;13.77;;;9.32;;
23260;SDS011;11799;47.740;-3.390;2023-06-14T02:00:16;15.77;;;10.45;;
23260;SDS011;11799;47.740;-3.390;2023-06-14T02:02:43;13.00;;;10.32;;
23260;SDS011;11799;47.740;-3.390;2023-06-14T02:05:09;13.38;;;10.93;;
23260;SDS011;11799;47.740;-3.390;2023-06-14T02:07:35;15.13;;;10.98;;
23260;SDS011;11799;47.740;-3.390;2023-06-14T02:10:02;13.52;;;10.90;;
23260;SDS011;11799;47.740;-3.390;2023-06-14T02:12:28;14.27;;;10.23;;
23260;SDS011;11799;47.740;-3.390;2023-06-14T02:14:56;16.20;;;11.07;;
23260;SDS011;11799;47.740;-3.390;2023-06-14T02:17:23;13.70;;;11.07;;
23260;SDS011;11799;47.740;-3.390;2023-06-14T02:19:49;14.55;;;11.15;;
23260;SDS011;11799;47.740;-3.390;2023-06-14T02:22:16;17.90;;;12.18;;
23260;SDS011;11799;47.740;-3.390;2023-06-14T02:24:42;17.13;;;11.88;;
23260;SDS011;11799;47.740;-3.390;2023-06-14T02:27:08;14.85;;;11.13;;
23260;SDS011;11799;47.740;-3.390;2023-06-14T02:29:36;17.13;;;10.85;;
23260;SDS011;11799;47.740;-3.390;2023-06-14T02:32:03;14.90;;;11.65;;
23260;SDS011;11799;47.740;-3.390;2023-06-14T02:34:30;17.77;;;11.43;;
23260;SDS011;11799;47.740;-3.390;2023-06-14T02:36:55;15.90;;;12.05;;
23260;SDS011;11799;47.740;-3.390;2023-06-14T02:39:22;17.73;;;12.25;;
23260;SDS011;11799;47.740;-3.390;2023-06-14T02:41:48;15.73;;;11.77;;
23260;SDS011;11799;47.740;-3.390;2023-06-14T02:44:17;15.63;;;11.73;;
23260;SDS011;11799;47.740;-3.390;2023-06-14T02:46:43;15.43;;;10.98;;
23260;SDS011;11799;47.740;-3.390;2023-06-14T02:49:10;13.95;;;10.85;;
23260;SDS011;11799;47.740;-3.390;2023-06-14T02:51:37;15.13;;;11.20;;
23260;SDS011;11799;47.740;-3.390;2023-06-14T02:54:02;15.48;;;11.32;;
23260;SDS011;11799;47.740;-3.390;2023-06-14T02:56:28;17.65;;;12.00;;
23260;SDS011;11799;47.740;-3.390;2023-06-14T02:58:55;16.30;;;11.80;;
23260;SDS011;11799;47.740;-3.390;2023-06-14T03:01:22;16.30;;;11.82;;
23260;SDS011;11799;47.740;-3.390;2023-06-14T03:03:48;16.08;;;11.73;;
23260;SDS011;11799;47.740;-3.390;2023-06-14T03:06:14;16.75;;;12.43;;
23260;SDS011;11799;47.740;-3.390;2023-06-14T03:08:43;16.80;;;12.57;;
23260;SDS011;11799;47.740;-3.390;2023-06-14T03:13:39;17.70;;;11.52;;
23260;SDS011;11799;47.740;-3.390;2023-06-14T03:16:06;15.98;;;12.20;;
23260;SDS011;11799;47.740;-3.390;2023-06-14T03:18:36;17.85;;;12.45;;
23260;SDS011;11799;47.740;-3.390;2023-06-14T03:21:04;17.10;;;12.13;;
23260;SDS011;11799;47.740;-3.390;2023-06-14T03:23:31;15.73;;;11.25;;
23260;SDS011;11799;47.740;-3.390;2023-06-14T03:25:56;18.90;;;11.93;;
23260;SDS011;11799;47.740;-3.390;2023-06-14T03:28:22;12.05;;;9.27;;
23260;SDS011;11799;47.740;-3.390;2023-06-14T03:30:48;10.05;;;8.45;;
23260;SDS011;11799;47.740;-3.390;2023-06-14T03:33:14;12.18;;;9.25;;
23260;SDS011;11799;47.740;-3.390;2023-06-14T03:35:41;14.73;;;10.23;;
23260;SDS011;11799;47.740;-3.390;2023-06-14T03:38:07;14.35;;;10.52;;
23260;SDS011;11799;47.740;-3.390;2023-06-14T03:40:33;14.68;;;10.40;;
23260;SDS011;11799;47.740;-3.390;2023-06-14T03:43:01;14.70;;;10.55;;
23260;SDS011;11799;47.740;-3.390;2023-06-14T03:45:27;13.65;;;10.48;;
23260;SDS011;11799;47.740;-3.390;2023-06-14T03:47:53;13.57;;;10.27;;
23260;SDS011;11799;47.740;-3.390;2023-06-14T03:50:20;17.73;;;13.55;;
23260;SDS011;11799;47.740;-3.390;2023-06-14T03:52:47;18.50;;;13.27;;
23260;SDS011;11799;47.740;-3.390;2023-06-14T03:55:14;15.80;;;11.57;;
23260;SDS011;11799;47.740;-3.390;2023-06-14T03:57:41;15.13;;;10.85;;
23260;SDS011;11799;47.740;-3.390;2023-06-14T04:00:10;14.25;;;10.68;;
23260;SDS011;11799;47.740;-3.390;2023-06-14T04:02:41;14.48;;;11.13;;
23260;SDS011;11799;47.740;-3.390;2023-06-14T04:05:10;14.95;;;11.35;;
23260;SDS011;11799;47.740;-3.390;2023-06-14T04:07:37;16.42;;;13.48;;
23260;SDS011;11799;47.740;-3.390;2023-06-14T04:10:07;12.77;;;10.65;;
23260;SDS011;11799;47.740;-3.390;2023-06-14T04:12:33;14.48;;;10.95;;
23260;SDS011;11799;47.740;-3.390;2023-06-14T04:14:59;12.85;;;10.07;;
23260;SDS011;11799;47.740;-3.390;2023-06-14T04:17:27;14.05;;;11.35;;
23260;SDS011;11799;47.740;-3.390;2023-06-14T04:19:52;15.57;;;11.43;;
23260;SDS011;11799;47.740;-3.390;2023-06-14T04:22:18;17.73;;;11.82;;
23260;SDS011;11799;47.740;-3.390;2023-06-14T04:24:43;17.90;;;12.13;;
23260;SDS011;11799;47.740;-3.390;2023-06-14T04:27:10;16.13;;;11.65;;
23260;SDS011;11799;47.740;-3.390;2023-06-14T04:29:38;16.17;;;11.60;;
23260;SDS011;11799;47.740;-3.390;2023-06-14T04:32:08;14.38;;;11.10;;
23260;SDS011;11799;47.740;-3.390;2023-06-14T04:34:37;15.70;;;12.20;;
23260;SDS011;11799;47.740;-3.390;2023-06-14T04:37:03;19.80;;;14.30;;
23260;SDS011;11799;47.740;-3.390;2023-06-14T04:39:35;16.33;;;12.23;;
23260;SDS011;11799;47.740;-3.390;2023-06-14T04:42:01;16.77;;;13.07;;
23260;SDS011;11799;47.740;-3.390;2023-06-14T04:44:29;18.40;;;13.32;;
23260;SDS011;11799;47.740;-3.390;2023-06-14T04:47:00;15.77;;;11.75;;
23260;SDS011;11799;47.740;-3.390;2023-06-14T04:49:25;14.50;;;10.43;;
23260;SDS011;11799;47.740;-3.390;2023-06-14T04:51:52;17.50;;;12.55;;
23260;SDS011;11799;47.740;-3.390;2023-06-14T04:54:31;15.80;;;12.13;;
23260;SDS011;11799;47.740;-3.390;2023-06-14T04:57:00;18.05;;;13.32;;
23260;SDS011;11799;47.740;-3.390;2023-06-14T04:59:26;16.73;;;13.25;;
23260;SDS011;11799;47.740;-3.390;2023-06-14T05:01:52;15.02;;;11.90;;
23260;SDS011;11799;47.740;-3.390;2023-06-14T05:04:18;16.30;;;12.38;;
23260;SDS011;11799;47.740;-3.390;2023-06-14T05:06:45;20.45;;;13.57;;
23260;SDS011;11799;47.740;-3.390;2023-06-14T05:09:13;18.38;;;12.10;;
23260;SDS011;11799;47.740;-3.390;2023-06-14T05:11:40;15.35;;;10.68;;
23260;SDS011;11799;47.740;-3.390;2023-06-14T05:14:12;17.15;;;13.10;;
23260;SDS011;11799;47.740;-3.390;2023-06-14T05:16:39;15.40;;;12.15;;
23260;SDS011;11799;47.740;-3.390;2023-06-14T05:19:06;15.18;;;11.80;;
23260;SDS011;11799;47.740;-3.390;2023-06-14T05:21:32;16.17;;;11.75;;
23260;SDS011;11799;47.740;-3.390;2023-06-14T05:24:00;14.65;;;10.95;;
23260;SDS011;11799;47.740;-3.390;2023-06-14T05:26:26;14.75;;;11.10;;
23260;SDS011;11799;47.740;-3.390;2023-06-14T05:28:57;16.27;;;12.83;;
23260;SDS011;11799;47.740;-3.390;2023-06-14T05:31:23;17.08;;;12.90;;
23260;SDS011;11799;47.740;-3.390;2023-06-14T05:33:51;16.25;;;12.88;;
23260;SDS011;11799;47.740;-3.390;2023-06-14T05:36:17;15.68;;;11.52;;
23260;SDS011;11799;47.740;-3.390;2023-06-14T05:38:43;14.95;;;12.55;;
23260;SDS011;11799;47.740;-3.390;2023-06-14T05:41:08;14.75;;;12.00;;
23260;SDS011;11799;47.740;-3.390;2023-06-14T05:43:34;16.55;;;12.32;;
23260;SDS011;11799;47.740;-3.390;2023-06-14T05:46:00;14.48;;;10.52;;
23260;SDS011;11799;47.740;-3.390;2023-06-14T05:48:25;13.95;;;10.95;;
23260;SDS011;11799;47.740;-3.390;2023-06-14T05:50:51;13.75;;;11.85;;
23260;SDS011;11799;47.740;-3.390;2023-06-14T05:53:17;15.75;;;12.45;;
23260;SDS011;11799;47.740;-3.390;2023-06-14T05:55:42;15.80;;;11.60;;
23260;SDS011;11799;47.740;-3.390;2023-06-14T05:58:08;15.32;;;12.82;;
23260;SDS011;11799;47.740;-3.390;2023-06-14T06:00:33;18.88;;;12.98;;
23260;SDS011;11799;47.740;-3.390;2023-06-14T06:02:59;12.80;;;10.10;;
23260;SDS011;11799;47.740;-3.390;2023-06-14T06:05:26;15.75;;;11.27;;
23260;SDS011;11799;47.740;-3.390;2023-06-14T06:07:51;13.40;;;9.88;;
23260;SDS011;11799;47.740;-3.390;2023-06-14T06:10:17;15.52;;;12.30;;
23260;SDS011;11799;47.740;-3.390;2023-06-14T06:12:42;14.65;;;12.52;;
23260;SDS011;11799;47.740;-3.390;2023-06-14T06:15:08;10.70;;;9.50;;
23260;SDS011;11799;47.740;-3.390;2023-06-14T06:17:37;16.58;;;12.45;;
23260;SDS011;11799;47.740;-3.390;2023-06-14T06:20:03;13.98;;;11.13;;
23260;SDS011;11799;47.740;-3.390;2023-06-14T06:22:31;16.20;;;11.75;;
23260;SDS011;11799;47.740;-3.390;2023-06-14T06:24:56;16.60;;;12.15;;
23260;SDS011;11799;47.740;-3.390;2023-06-14T06:27:23;13.13;;;11.43;;
23260;SDS011;11799;47.740;-3.390;2023-06-14T06:29:48;11.25;;;9.13;;
23260;SDS011;11799;47.740;-3.390;2023-06-14T06:32:15;15.85;;;12.00;;
23260;SDS011;11799;47.740;-3.390;2023-06-14T06:34:40;15.32;;;12.57;;
23260;SDS011;11799;47.740;-3.390;2023-06-14T06:37:06;15.32;;;11.52;;
23260;SDS011;11799;47.740;-3.390;2023-06-14T06:39:32;12.32;;;10.63;;
23260;SDS011;11799;47.740;-3.390;2023-06-14T06:41:58;15.82;;;11.75;;
23260;SDS011;11799;47.740;-3.390;2023-06-14T06:44:31;15.25;;;12.23;;
23260;SDS011;11799;47.740;-3.390;2023-06-14T06:46:57;14.60;;;11.00;;
23260;SDS011;11799;47.740;-3.390;2023-06-14T06:49:23;14.60;;;10.75;;
23260;SDS011;11799;47.740;-3.390;2023-06-14T06:51:59;13.23;;;9.75;;
23260;SDS011;11799;47.740;-3.390;2023-06-14T06:54:29;13.02;;;10.82;;
23260;SDS011;11799;47.740;-3.390;2023-06-14T06:56:54;12.70;;;9.60;;
23260;SDS011;11799;47.740;-3.390;2023-06-14T06:59:20;13.27;;;10.93;;
23260;SDS011;11799;47.740;-3.390;2023-06-14T07:01:46;13.88;;;11.13;;
23260;SDS011;11799;47.740;-3.390;2023-06-14T07:04:12;13.15;;;10.52;;
23260;SDS011;11799;47.740;-3.390;2023-06-14T07:06:38;12.20;;;10.02;;
23260;SDS011;11799;47.740;-3.390;2023-06-14T07:09:03;12.40;;;10.02;;
23260;SDS011;11799;47.740;-3.390;2023-06-14T07:11:31;12.48;;;9.73;;
23260;SDS011;11799;47.740;-3.390;2023-06-14T07:13:57;10.95;;;9.77;;
23260;SDS011;11799;47.740;-3.390;2023-06-14T07:16:22;14.82;;;10.25;;
23260;SDS011;11799;47.740;-3.390;2023-06-14T07:18:48;11.30;;;9.43;;
23260;SDS011;11799;47.740;-3.390;2023-06-14T07:21:14;12.23;;;7.97;;
23260;SDS011;11799;47.740;-3.390;2023-06-14T07:23:39;10.27;;;8.77;;
23260;SDS011;11799;47.740;-3.390;2023-06-14T07:26:05;12.15;;;9.30;;
23260;SDS011;11799;47.740;-3.390;2023-06-14T07:28:31;11.85;;;9.13;;
23260;SDS011;11799;47.740;-3.390;2023-06-14T07:30:56;10.18;;;9.10;;
23260;SDS011;11799;47.740;-3.390;2023-06-14T07:33:22;9.32;;;8.32;;
23260;SDS011;11799;47.740;-3.390;2023-06-14T07:35:48;12.15;;;9.70;;
23260;SDS011;11799;47.740;-3.390;2023-06-14T07:38:14;10.63;;;8.35;;
23260;SDS011;11799;47.740;-3.390;2023-06-14T07:40:40;13.38;;;8.18;;
23260;SDS011;11799;47.740;-3.390;2023-06-14T07:43:05;10.68;;;8.40;;
23260;SDS011;11799;47.740;-3.390;2023-06-14T07:45:31;10.23;;;8.23;;
23260;SDS011;11799;47.740;-3.390;2023-06-14T07:47:56;11.13;;;7.70;;
23260;SDS011;11799;47.740;-3.390;2023-06-14T07:50:22;8.30;;;7.40;;
23260;SDS011;11799;47.740;-3.390;2023-06-14T07:52:48;9.77;;;7.53;;
23260;SDS011;11799;47.740;-3.390;2023-06-14T07:55:14;7.68;;;6.93;;
23260;SDS011;11799;47.740;-3.390;2023-06-14T07:57:40;8.18;;;6.93;;
23260;SDS011;11799;47.740;-3.390;2023-06-14T08:00:06;8.57;;;6.72;;
23260;SDS011;11799;47.740;-3.390;2023-06-14T08:02:37;7.50;;;6.78;;
23260;SDS011;11799;47.740;-3.390;2023-06-14T08:05:03;9.52;;;7.05;;
23260;SDS011;11799;47.740;-3.390;2023-06-14T08:07:28;8.18;;;6.63;;
23260;SDS011;11799;47.740;-3.390;2023-06-14T08:09:54;8.95;;;7.68;;
23260;SDS011;11799;47.740;-3.390;2023-06-14T08:12:19;8.45;;;5.75;;
23260;SDS011;11799;47.740;-3.390;2023-06-14T08:14:45;8.82;;;7.20;;
23260;SDS011;11799;47.740;-3.390;2023-06-14T08:17:11;9.10;;;7.38;;
23260;SDS011;11799;47.740;-3.390;2023-06-14T08:19:36;9.95;;;6.68;;
23260;SDS011;11799;47.740;-3.390;2023-06-14T08:22:02;8.73;;;6.95;;
23260;SDS011;11799;47.740;-3.390;2023-06-14T08:24:28;7.13;;;6.03;;
23260;SDS011;11799;47.740;-3.390;2023-06-14T08:26:54;11.88;;;7.50;;
23260;SDS011;11799;47.740;-3.390;2023-06-14T08:29:20;9.27;;;6.55;;
23260;SDS011;11799;47.740;-3.390;2023-06-14T08:31:46;11.32;;;6.50;;
23260;SDS011;11799;47.740;-3.390;2023-06-14T08:34:12;7.75;;;6.93;;
23260;SDS011;11799;47.740;-3.390;2023-06-14T08:36:38;9.85;;;6.95;;
23260;SDS011;11799;47.740;-3.390;2023-06-14T08:39:03;9.82;;;6.53;;
23260;SDS011;11799;47.740;-3.390;2023-06-14T08:41:29;7.97;;;7.18;;
23260;SDS011;11799;47.740;-3.390;2023-06-14T08:43:55;7.80;;;6.45;;
23260;SDS011;11799;47.740;-3.390;2023-06-14T08:46:22;6.85;;;6.22;;
23260;SDS011;11799;47.740;-3.390;2023-06-14T08:48:52;10.18;;;6.90;;
23260;SDS011;11799;47.740;-3.390;2023-06-14T08:51:23;9.63;;;6.80;;
23260;SDS011;11799;47.740;-3.390;2023-06-14T08:53:55;7.78;;;6.97;;
23260;SDS011;11799;47.740;-3.390;2023-06-14T08:56:26;7.68;;;6.97;;
23260;SDS011;11799;47.740;-3.390;2023-06-14T08:58:53;6.90;;;6.18;;
23260;SDS011;11799;47.740;-3.390;2023-06-14T09:01:19;8.77;;;7.82;;
23260;SDS011;11799;47.740;-3.390;2023-06-14T09:03:47;9.50;;;7.50;;
23260;SDS011;11799;47.740;-3.390;2023-06-14T09:06:13;7.78;;;6.97;;
23260;SDS011;11799;47.740;-3.390;2023-06-14T09:08:44;8.32;;;6.30;;
23260;SDS011;11799;47.740;-3.390;2023-06-14T09:11:11;8.68;;;6.25;;
23260;SDS011;11799;47.740;-3.390;2023-06-14T09:13:38;11.43;;;6.70;;
23260;SDS011;11799;47.740;-3.390;2023-06-14T09:16:05;9.63;;;6.95;;
23260;SDS011;11799;47.740;-3.390;2023-06-14T09:18:37;8.48;;;7.60;;
23260;SDS011;11799;47.740;-3.390;2023-06-14T09:21:08;8.07;;;7.15;;
23260;SDS011;11799;47.740;-3.390;2023-06-14T09:23:38;8.68;;;7.78;;
23260;SDS011;11799;47.740;-3.390;2023-06-14T09:26:08;8.00;;;7.18;;
23260;SDS011;11799;47.740;-3.390;2023-06-14T09:28:35;9.18;;;6.68;;
23260;SDS011;11799;47.740;-3.390;2023-06-14T09:31:01;10.57;;;6.95;;
23260;SDS011;11799;47.740;-3.390;2023-06-14T09:33:27;8.48;;;7.18;;
23260;SDS011;11799;47.740;-3.390;2023-06-14T09:35:56;10.48;;;7.32;;
23260;SDS011;11799;47.740;-3.390;2023-06-14T09:38:21;7.55;;;6.35;;
23260;SDS011;11799;47.740;-3.390;2023-06-14T09:40:47;7.63;;;6.75;;
23260;SDS011;11799;47.740;-3.390;2023-06-14T09:43:12;9.43;;;6.90;;
23260;SDS011;11799;47.740;-3.390;2023-06-14T09:45:38;8.90;;;6.28;;
23260;SDS011;11799;47.740;-3.390;2023-06-14T09:48:06;8.57;;;6.82;;
23260;SDS011;11799;47.740;-3.390;2023-06-14T09:50:33;7.57;;;6.50;;
23260;SDS011;11799;47.740;-3.390;2023-06-14T09:53:10;9.35;;;6.95;;
23260;SDS011;11799;47.740;-3.390;2023-06-14T09:55:37;9.88;;;6.70;;
23260;SDS011;11799;47.740;-3.390;2023-06-14T09:58:06;12.65;;;6.70;;
23260;SDS011;11799;47.740;-3.390;2023-06-14T10:00:33;12.00;;;6.60;;
23260;SDS011;11799;47.740;-3.390;2023-06-14T10:03:05;7.38;;;6.60;;
23260;SDS011;11799;47.740;-3.390;2023-06-14T10:05:36;8.00;;;7.28;;
23260;SDS011;11799;47.740;-3.390;2023-06-14T10:08:07;8.18;;;7.38;;
23260;SDS011;11799;47.740;-3.390;2023-06-14T10:10:34;7.57;;;6.85;;
23260;SDS011;11799;47.740;-3.390;2023-06-14T10:13:00;8.30;;;6.30;;
23260;SDS011;11799;47.740;-3.390;2023-06-14T10:18:18;6.93;;;6.13;;
23260;SDS011;11799;47.740;-3.390;2023-06-14T10:23:33;7.00;;;6.30;;
23260;SDS011;11799;47.740;-3.390;2023-06-14T10:26:03;7.15;;;6.45;;
23260;SDS011;11799;47.740;-3.390;2023-06-14T10:28:28;9.18;;;7.13;;
23260;SDS011;11799;47.740;-3.390;2023-06-14T10:33:34;7.65;;;6.80;;
23260;SDS011;11799;47.740;-3.390;2023-06-14T10:38:56;8.20;;;5.75;;
23260;SDS011;11799;47.740;-3.390;2023-06-14T10:41:31;7.32;;;6.28;;
23260;SDS011;11799;47.740;-3.390;2023-06-14T10:46:54;8.85;;;5.80;;
23260;SDS011;11799;47.740;-3.390;2023-06-14T10:49:42;7.35;;;5.97;;
23260;SDS011;11799;47.740;-3.390;2023-06-14T10:55:04;7.60;;;5.95;;
23260;SDS011;11799;47.740;-3.390;2023-06-14T10:57:34;7.28;;;5.28;;
23260;SDS011;11799;47.740;-3.390;2023-06-14T11:00:24;6.38;;;4.93;;
23260;SDS011;11799;47.740;-3.390;2023-06-14T11:10:49;5.80;;;5.07;;
23260;SDS011;11799;47.740;-3.390;2023-06-14T11:13:15;5.88;;;5.35;;
23260;SDS011;11799;47.740;-3.390;2023-06-14T11:15:45;6.10;;;5.20;;
23260;SDS011;11799;47.740;-3.390;2023-06-14T11:18:18;7.03;;;4.95;;
23260;SDS011;11799;47.740;-3.390;2023-06-14T11:20:46;6.05;;;5.45;;
23260;SDS011;11799;47.740;-3.390;2023-06-14T11:23:12;5.10;;;4.60;;
23260;SDS011;11799;47.740;-3.390;2023-06-14T11:25:37;6.30;;;4.82;;
23260;SDS011;11799;47.740;-3.390;2023-06-14T11:28:03;6.13;;;5.50;;
23260;SDS011;11799;47.740;-3.390;2023-06-14T11:30:29;7.38;;;5.05;;
23260;SDS011;11799;47.740;-3.390;2023-06-14T11:32:55;11.73;;;5.05;;
23260;SDS011;11799;47.740;-3.390;2023-06-14T11:35:21;5.68;;;5.00;;
23260;SDS011;11799;47.740;-3.390;2023-06-14T11:37:57;9.13;;;4.80;;
23260;SDS011;11799;47.740;-3.390;2023-06-14T11:40:25;7.57;;;4.43;;
23260;SDS011;11799;47.740;-3.390;2023-06-14T11:43:02;6.80;;;4.65;;
23260;SDS011;11799;47.740;-3.390;2023-06-14T11:45:28;4.75;;;4.22;;
23260;SDS011;11799;47.740;-3.390;2023-06-14T11:47:55;8.68;;;4.88;;
23260;SDS011;11799;47.740;-3.390;2023-06-14T11:50:21;5.57;;;4.30;;
23260;SDS011;11799;47.740;-3.390;2023-06-14T11:52:54;8.60;;;4.88;;
23260;SDS011;11799;47.740;-3.390;2023-06-14T11:55:21;5.53;;;4.05;;
23260;SDS011;11799;47.740;-3.390;2023-06-14T11:57:47;4.65;;;4.25;;
23260;SDS011;11799;47.740;-3.390;2023-06-14T12:00:13;5.72;;;4.45;;
23260;SDS011;11799;47.740;-3.390;2023-06-14T12:02:41;5.65;;;4.05;;
23260;SDS011;11799;47.740;-3.390;2023-06-14T12:05:07;4.47;;;4.07;;
23260;SDS011;11799;47.740;-3.390;2023-06-14T12:07:38;6.38;;;4.47;;
23260;SDS011;11799;47.740;-3.390;2023-06-14T12:12:36;6.20;;;4.20;;
23260;SDS011;11799;47.740;-3.390;2023-06-14T12:15:06;5.88;;;4.35;;
23260;SDS011;11799;47.740;-3.390;2023-06-14T12:17:38;5.72;;;4.50;;
23260;SDS011;11799;47.740;-3.390;2023-06-14T12:20:08;6.57;;;4.25;;
23260;SDS011;11799;47.740;-3.390;2023-06-14T12:22:51;4.90;;;4.00;;
23260;SDS011;11799;47.740;-3.390;2023-06-14T12:25:28;4.50;;;3.63;;
23260;SDS011;11799;47.740;-3.390;2023-06-14T12:27:59;6.90;;;4.30;;
23260;SDS011;11799;47.740;-3.390;2023-06-14T12:30:29;5.07;;;3.90;;
23260;SDS011;11799;47.740;-3.390;2023-06-14T12:32:54;13.18;;;4.10;;
23260;SDS011;11799;47.740;-3.390;2023-06-14T12:35:20;6.07;;;4.03;;
23260;SDS011;11799;47.740;-3.390;2023-06-14T12:37:46;3.78;;;3.40;;
23260;SDS011;11799;47.740;-3.390;2023-06-14T12:40:12;4.80;;;3.10;;
23260;SDS011;11799;47.740;-3.390;2023-06-14T12:42:38;5.85;;;4.07;;
23260;SDS011;11799;47.740;-3.390;2023-06-14T12:45:03;6.15;;;4.03;;
23260;SDS011;11799;47.740;-3.390;2023-06-14T12:47:29;6.43;;;3.85;;
23260;SDS011;11799;47.740;-3.390;2023-06-14T12:49:55;4.75;;;4.35;;
23260;SDS011;11799;47.740;-3.390;2023-06-14T12:52:21;4.38;;;3.97;;
23260;SDS011;11799;47.740;-3.390;2023-06-14T12:54:46;4.22;;;3.30;;
23260;SDS011;11799;47.740;-3.390;2023-06-14T12:57:12;4.15;;;3.58;;
23260;SDS011;11799;47.740;-3.390;2023-06-14T12:59:38;3.63;;;3.20;;
23260;SDS011;11799;47.740;-3.390;2023-06-14T13:02:24;11.75;;;4.00;;
23260;SDS011;11799;47.740;-3.390;2023-06-14T13:04:49;4.03;;;3.53;;
23260;SDS011;11799;47.740;-3.390;2023-06-14T13:07:15;3.95;;;3.55;;
23260;SDS011;11799;47.740;-3.390;2023-06-14T13:09:41;5.68;;;3.70;;
23260;SDS011;11799;47.740;-3.390;2023-06-14T13:12:09;5.10;;;3.72;;
23260;SDS011;11799;47.740;-3.390;2023-06-14T13:17:03;4.30;;;3.90;;
23260;SDS011;11799;47.740;-3.390;2023-06-14T13:19:29;5.07;;;3.65;;
23260;SDS011;11799;47.740;-3.390;2023-06-14T13:21:55;3.83;;;3.30;;
23260;SDS011;11799;47.740;-3.390;2023-06-14T13:24:20;4.47;;;3.70;;
23260;SDS011;11799;47.740;-3.390;2023-06-14T13:26:46;4.35;;;3.60;;
23260;SDS011;11799;47.740;-3.390;2023-06-14T13:29:11;7.03;;;4.00;;
23260;SDS011;11799;47.740;-3.390;2023-06-14T13:31:37;4.20;;;3.30;;
23260;SDS011;11799;47.740;-3.390;2023-06-14T13:34:03;7.60;;;3.90;;
23260;SDS011;11799;47.740;-3.390;2023-06-14T13:36:29;4.30;;;3.90;;
23260;SDS011;11799;47.740;-3.390;2023-06-14T13:38:55;7.40;;;3.80;;
23260;SDS011;11799;47.740;-3.390;2023-06-14T13:41:21;5.40;;;3.63;;
23260;SDS011;11799;47.740;-3.390;2023-06-14T13:43:46;4.88;;;3.80;;
23260;SDS011;11799;47.740;-3.390;2023-06-14T13:46:12;4.07;;;3.70;;
23260;SDS011;11799;47.740;-3.390;2023-06-14T13:48:38;3.95;;;3.50;;
23260;SDS011;11799;47.740;-3.390;2023-06-14T13:51:03;3.83;;;3.53;;
23260;SDS011;11799;47.740;-3.390;2023-06-14T13:53:29;4.85;;;3.60;;
23260;SDS011;11799;47.740;-3.390;2023-06-14T13:55:55;4.00;;;3.60;;
23260;SDS011;11799;47.740;-3.390;2023-06-14T13:58:21;4.70;;;3.80;;
23260;SDS011;11799;47.740;-3.390;2023-06-14T14:00:47;5.35;;;3.72;;
23260;SDS011;11799;47.740;-3.390;2023-06-14T14:03:12;4.32;;;3.90;;
23260;SDS011;11799;47.740;-3.390;2023-06-14T14:05:38;4.40;;;4.00;;
23260;SDS011;11799;47.740;-3.390;2023-06-14T14:08:03;4.25;;;3.78;;
23260;SDS011;11799;47.740;-3.390;2023-06-14T14:10:29;4.47;;;3.45;;
23260;SDS011;11799;47.740;-3.390;2023-06-14T14:12:55;5.00;;;3.83;;
23260;SDS011;11799;47.740;-3.390;2023-06-14T14:15:21;4.10;;;3.70;;
23260;SDS011;11799;47.740;-3.390;2023-06-14T14:17:47;4.20;;;3.80;;
23260;SDS011;11799;47.740;-3.390;2023-06-14T14:20:12;4.50;;;4.00;;
23260;SDS011;11799;47.740;-3.390;2023-06-14T14:22:43;5.18;;;3.72;;
23260;SDS011;11799;47.740;-3.390;2023-06-14T14:25:09;4.85;;;3.80;;
23260;SDS011;11799;47.740;-3.390;2023-06-14T14:27:36;6.25;;;3.67;;
23260;SDS011;11799;47.740;-3.390;2023-06-14T14:30:02;5.07;;;3.55;;
23260;SDS011;11799;47.740;-3.390;2023-06-14T14:32:31;4.57;;;3.50;;
23260;SDS011;11799;47.740;-3.390;2023-06-14T14:34:57;4.50;;;3.88;;
23260;SDS011;11799;47.740;-3.390;2023-06-14T14:37:23;5.75;;;4.10;;
23260;SDS011;11799;47.740;-3.390;2023-06-14T14:39:48;5.00;;;3.80;;
23260;SDS011;11799;47.740;-3.390;2023-06-14T14:42:14;4.43;;;4.03;;
23260;SDS011;11799;47.740;-3.390;2023-06-14T14:44:39;6.57;;;4.10;;
23260;SDS011;11799;47.740;-3.390;2023-06-14T14:47:05;5.40;;;3.70;;
23260;SDS011;11799;47.740;-3.390;2023-06-14T14:49:31;7.82;;;4.30;;
23260;SDS011;11799;47.740;-3.390;2023-06-14T14:51:57;6.97;;;4.60;;
23260;SDS011;11799;47.740;-3.390;2023-06-14T14:54:23;7.60;;;4.50;;
23260;SDS011;11799;47.740;-3.390;2023-06-14T14:56:50;4.57;;;4.18;;
23260;SDS011;11799;47.740;-3.390;2023-06-14T14:59:15;6.13;;;4.40;;
23260;SDS011;11799;47.740;-3.390;2023-06-14T15:01:41;5.70;;;4.60;;